sensor_id;sensor_type;location;lat;lon;timestamp;pressure;altitude;pressure_sealevel;temperature;humidity
5691;BME280;2870;42.680;23.364;2024-03-02T00:00:49;94517.84;;;8.88;100.00
5691;BME280;2870;42.680;23.364;2024-03-02T00:03:15;94565.41;;;9.36;100.00
5691;BME280;2870;42.680;23.364;2024-03-02T00:05:41;94575.56;;;9.16;100.00
5691;BME280;2870;42.680;23.364;2024-03-02T00:08:09;94561.75;;;9.18;100.00
5691;BME280;2870;42.680;23.364;2024-03-02T00:10:37;94569.41;;;9.17;100.00
5691;BME280;2870;42.680;23.364;2024-03-02T00:13:06;94563.47;;;9.06;100.00
5691;BME280;2870;42.680;23.364;2024-03-02T00:15:46;94572.59;;;9.14;100.00
5691;BME280;2870;42.680;23.364;2024-03-02T00:18:14;94574.75;;;9.38;100.00
5691;BME280;2870;42.680;23.364;2024-03-02T00:20:41;94570.88;;;9.26;100.00
5691;BME280;2870;42.680;23.364;2024-03-02T00:23:10;94567.50;;;9.27;100.00
5691;BME280;2870;42.680;23.364;2024-03-02T00:25:40;94569.00;;;9.36;100.00
5691;BME280;2870;42.680;23.364;2024-03-02T00:28:17;94563.53;;;9.46;100.00
5691;BME280;2870;42.680;23.364;2024-03-02T00:30:58;94578.00;;;9.12;100.00
5691;BME280;2870;42.680;23.364;2024-03-02T00:33:27;94558.06;;;9.08;100.00
5691;BME280;2870;42.680;23.364;2024-03-02T00:35:54;94541.63;;;9.19;100.00
5691;BME280;2870;42.680;23.364;2024-03-02T00:38:21;94556.06;;;9.48;100.00
5691;BME280;2870;42.680;23.364;2024-03-02T00:40:48;94556.06;;;9.41;100.00
5691;BME280;2870;42.680;23.364;2024-03-02T00:43:41;94552.53;;;9.40;100.00
5691;BME280;2870;42.680;23.364;2024-03-02T00:46:13;94562.19;;;9.54;100.00
5691;BME280;2870;42.680;23.364;2024-03-02T00:48:55;94552.00;;;9.34;100.00
5691;BME280;2870;42.680;23.364;2024-03-02T00:51:24;94555.09;;;9.53;100.00
5691;BME280;2870;42.680;23.364;2024-03-02T00:53:53;94550.38;;;9.64;99.43
5691;BME280;2870;42.680;23.364;2024-03-02T00:56:22;94545.19;;;9.60;98.40
5691;BME280;2870;42.680;23.364;2024-03-02T00:58:49;94537.31;;;9.59;99.27
5691;BME280;2870;42.680;23.364;2024-03-02T01:01:16;94545.56;;;9.56;99.04
5691;BME280;2870;42.680;23.364;2024-03-02T01:03:43;94547.25;;;9.60;99.34
5691;BME280;2870;42.680;23.364;2024-03-02T01:06:09;94547.41;;;9.62;99.06
5691;BME280;2870;42.680;23.364;2024-03-02T01:08:36;94548.19;;;9.54;99.01
5691;BME280;2870;42.680;23.364;2024-03-02T01:11:05;94555.22;;;9.71;98.76
5691;BME280;2870;42.680;23.364;2024-03-02T01:13:31;94556.72;;;9.64;98.93
5691;BME280;2870;42.680;23.364;2024-03-02T01:15:58;94545.50;;;9.64;99.56
5691;BME280;2870;42.680;23.364;2024-03-02T01:18:25;94543.53;;;9.49;100.00
5691;BME280;2870;42.680;23.364;2024-03-02T01:20:52;94535.16;;;9.49;99.77
5691;BME280;2870;42.680;23.364;2024-03-02T01:23:21;94534.34;;;9.56;100.00
5691;BME280;2870;42.680;23.364;2024-03-02T01:25:48;94531.47;;;9.39;100.00
5691;BME280;2870;42.680;23.364;2024-03-02T01:28:16;94528.06;;;9.48;100.00
5691;BME280;2870;42.680;23.364;2024-03-02T01:30:42;94525.25;;;9.48;100.00
5691;BME280;2870;42.680;23.364;2024-03-02T01:33:09;94521.31;;;9.51;100.00
5691;BME280;2870;42.680;23.364;2024-03-02T01:35:36;94522.53;;;9.33;100.00
5691;BME280;2870;42.680;23.364;2024-03-02T01:38:03;94515.72;;;9.51;100.00
5691;BME280;2870;42.680;23.364;2024-03-02T01:40:31;94525.00;;;9.62;100.00
5691;BME280;2870;42.680;23.364;2024-03-02T01:42:58;94523.31;;;9.59;100.00
5691;BME280;2870;42.680;23.364;2024-03-02T01:45:26;94522.72;;;9.68;100.00
5691;BME280;2870;42.680;23.364;2024-03-02T01:47:53;94518.75;;;9.78;100.00
5691;BME280;2870;42.680;23.364;2024-03-02T01:50:25;94513.53;;;9.75;100.00
5691;BME280;2870;42.680;23.364;2024-03-02T01:52:52;94522.81;;;9.85;100.00
5691;BME280;2870;42.680;23.364;2024-03-02T01:55:20;94514.03;;;9.81;100.00
5691;BME280;2870;42.680;23.364;2024-03-02T01:57:46;94526.75;;;9.49;100.00
5691;BME280;2870;42.680;23.364;2024-03-02T02:00:15;94515.44;;;9.32;100.00
5691;BME280;2870;42.680;23.364;2024-03-02T02:02:43;94519.13;;;9.42;100.00
5691;BME280;2870;42.680;23.364;2024-03-02T02:05:10;94513.06;;;9.61;100.00
5691;BME280;2870;42.680;23.364;2024-03-02T02:07:37;94525.59;;;9.52;100.00
5691;BME280;2870;42.680;23.364;2024-03-02T02:10:04;94516.13;;;9.48;100.00
5691;BME280;2870;42.680;23.364;2024-03-02T02:12:32;94518.19;;;9.47;100.00
5691;BME280;2870;42.680;23.364;2024-03-02T02:14:58;94508.41;;;9.56;100.00
5691;BME280;2870;42.680;23.364;2024-03-02T02:17:25;94514.28;;;9.43;100.00
5691;BME280;2870;42.680;23.364;2024-03-02T02:19:53;94508.41;;;9.16;100.00
5691;BME280;2870;42.680;23.364;2024-03-02T02:22:22;94509.53;;;9.13;100.00
5691;BME280;2870;42.680;23.364;2024-03-02T02:24:48;94508.06;;;9.12;100.00
5691;BME280;2870;42.680;23.364;2024-03-02T02:27:15;94508.03;;;9.19;100.00
5691;BME280;2870;42.680;23.364;2024-03-02T02:29:42;94510.63;;;9.25;100.00
5691;BME280;2870;42.680;23.364;2024-03-02T02:32:08;94505.63;;;9.16;100.00
5691;BME280;2870;42.680;23.364;2024-03-02T02:34:35;94506.53;;;9.26;100.00
5691;BME280;2870;42.680;23.364;2024-03-02T02:37:02;94507.59;;;9.38;100.00
5691;BME280;2870;42.680;23.364;2024-03-02T02:39:30;94497.94;;;9.24;100.00
5691;BME280;2870;42.680;23.364;2024-03-02T02:41:56;94505.19;;;9.27;100.00
5691;BME280;2870;42.680;23.364;2024-03-02T02:44:23;94507.06;;;9.32;100.00
5691;BME280;2870;42.680;23.364;2024-03-02T02:46:50;94505.13;;;9.42;100.00
5691;BME280;2870;42.680;23.364;2024-03-02T02:49:17;94505.31;;;9.44;100.00
5691;BME280;2870;42.680;23.364;2024-03-02T02:51:43;94511.38;;;9.25;100.00
5691;BME280;2870;42.680;23.364;2024-03-02T02:54:10;94505.06;;;9.17;100.00
5691;BME280;2870;42.680;23.364;2024-03-02T02:56:38;94503.59;;;9.09;100.00
5691;BME280;2870;42.680;23.364;2024-03-02T02:59:05;94506.97;;;8.99;100.00
5691;BME280;2870;42.680;23.364;2024-03-02T03:04:51;94507.16;;;9.01;100.00
5691;BME280;2870;42.680;23.364;2024-03-02T03:07:17;94507.28;;;9.19;100.00
5691;BME280;2870;42.680;23.364;2024-03-02T03:09:44;94517.50;;;9.24;100.00
5691;BME280;2870;42.680;23.364;2024-03-02T03:12:12;94507.84;;;9.25;100.00
5691;BME280;2870;42.680;23.364;2024-03-02T03:14:40;94503.94;;;9.13;100.00
5691;BME280;2870;42.680;23.364;2024-03-02T03:17:07;94508.59;;;9.18;100.00
5691;BME280;2870;42.680;23.364;2024-03-02T03:19:34;94503.94;;;9.20;100.00
5691;BME280;2870;42.680;23.364;2024-03-02T03:22:01;94511.03;;;9.14;100.00
5691;BME280;2870;42.680;23.364;2024-03-02T03:24:28;94511.19;;;9.23;100.00
5691;BME280;2870;42.680;23.364;2024-03-02T03:26:55;94506.16;;;9.22;100.00
5691;BME280;2870;42.680;23.364;2024-03-02T03:29:23;94513.53;;;9.42;100.00
5691;BME280;2870;42.680;23.364;2024-03-02T03:31:50;94511.59;;;9.12;100.00
5691;BME280;2870;42.680;23.364;2024-03-02T03:34:16;94509.34;;;9.18;100.00
5691;BME280;2870;42.680;23.364;2024-03-02T03:36:43;94512.53;;;9.15;100.00
5691;BME280;2870;42.680;23.364;2024-03-02T03:39:10;94462.63;;;8.88;100.00
5691;BME280;2870;42.680;23.364;2024-03-02T03:41:37;94519.97;;;9.20;100.00
5691;BME280;2870;42.680;23.364;2024-03-02T03:44:03;94517.72;;;9.18;100.00
5691;BME280;2870;42.680;23.364;2024-03-02T03:46:32;94517.72;;;9.26;100.00
5691;BME280;2870;42.680;23.364;2024-03-02T03:48:59;94508.38;;;9.31;100.00
5691;BME280;2870;42.680;23.364;2024-03-02T03:51:25;94509.66;;;9.30;100.00
5691;BME280;2870;42.680;23.364;2024-03-02T03:53:52;94509.69;;;9.22;100.00
5691;BME280;2870;42.680;23.364;2024-03-02T03:56:19;94510.63;;;9.25;100.00
5691;BME280;2870;42.680;23.364;2024-03-02T03:58:45;94506.44;;;9.41;100.00
5691;BME280;2870;42.680;23.364;2024-03-02T04:01:12;94506.94;;;9.07;100.00
5691;BME280;2870;42.680;23.364;2024-03-02T04:03:40;94509.69;;;9.22;100.00
5691;BME280;2870;42.680;23.364;2024-03-02T04:06:07;94515.81;;;9.36;100.00
5691;BME280;2870;42.680;23.364;2024-03-02T04:08:34;94510.22;;;9.28;100.00
5691;BME280;2870;42.680;23.364;2024-03-02T04:11:00;94508.00;;;9.27;100.00
5691;BME280;2870;42.680;23.364;2024-03-02T04:13:28;94504.88;;;9.15;100.00
5691;BME280;2870;42.680;23.364;2024-03-02T04:15:54;94502.66;;;9.14;100.00
5691;BME280;2870;42.680;23.364;2024-03-02T04:18:21;94508.91;;;9.29;100.00
5691;BME280;2870;42.680;23.364;2024-03-02T04:20:49;94505.19;;;9.27;100.00
5691;BME280;2870;42.680;23.364;2024-03-02T04:23:16;94509.44;;;9.36;100.00
5691;BME280;2870;42.680;23.364;2024-03-02T04:25:43;94515.44;;;9.32;100.00
5691;BME280;2870;42.680;23.364;2024-03-02T04:28:09;94513.66;;;9.12;100.00
5691;BME280;2870;42.680;23.364;2024-03-02T04:30:37;94505.13;;;9.42;100.00
5691;BME280;2870;42.680;23.364;2024-03-02T04:33:04;94506.31;;;9.24;100.00
5691;BME280;2870;42.680;23.364;2024-03-02T04:35:32;94509.91;;;9.17;100.00
5691;BME280;2870;42.680;23.364;2024-03-02T04:38:00;94517.38;;;9.14;100.00
5691;BME280;2870;42.680;23.364;2024-03-02T04:40:27;94520.72;;;9.13;100.00
5691;BME280;2870;42.680;23.364;2024-03-02T04:42:54;94518.84;;;9.23;100.00
5691;BME280;2870;42.680;23.364;2024-03-02T04:45:21;94507.63;;;9.23;100.00
5691;BME280;2870;42.680;23.364;2024-03-02T04:47:47;94522.53;;;9.33;100.00
5691;BME280;2870;42.680;23.364;2024-03-02T04:50:14;94520.84;;;9.30;100.00
5691;BME280;2870;42.680;23.364;2024-03-02T04:52:41;94518.03;;;9.30;100.00
5691;BME280;2870;42.680;23.364;2024-03-02T04:55:09;94522.41;;;9.16;100.00
5691;BME280;2870;42.680;23.364;2024-03-02T04:57:45;94521.38;;;8.88;100.00
5691;BME280;2870;42.680;23.364;2024-03-02T05:00:13;94521.13;;;9.01;100.00
5691;BME280;2870;42.680;23.364;2024-03-02T05:02:40;94530.84;;;9.00;100.00
5691;BME280;2870;42.680;23.364;2024-03-02T05:05:07;94522.31;;;8.91;100.00
5691;BME280;2870;42.680;23.364;2024-03-02T05:07:33;94521.75;;;8.85;100.00
5691;BME280;2870;42.680;23.364;2024-03-02T05:10:00;94529.56;;;8.94;100.00
5691;BME280;2870;42.680;23.364;2024-03-02T05:12:28;94541.13;;;8.90;100.00
5691;BME280;2870;42.680;23.364;2024-03-02T05:15:22;94528.44;;;8.89;100.00
5691;BME280;2870;42.680;23.364;2024-03-02T05:17:49;94531.25;;;8.89;100.00
5691;BME280;2870;42.680;23.364;2024-03-02T05:20:15;94541.31;;;8.85;100.00
5691;BME280;2870;42.680;23.364;2024-03-02T05:22:42;94538.56;;;8.62;100.00
5691;BME280;2870;42.680;23.364;2024-03-02T05:25:09;94545.06;;;8.72;100.00
5691;BME280;2870;42.680;23.364;2024-03-02T05:27:37;94542.47;;;8.82;100.00
5691;BME280;2870;42.680;23.364;2024-03-02T05:30:05;94551.41;;;8.72;100.00
5691;BME280;2870;42.680;23.364;2024-03-02T05:32:33;94548.81;;;8.74;100.00
5691;BME280;2870;42.680;23.364;2024-03-02T05:34:59;94557.19;;;8.82;100.00
5691;BME280;2870;42.680;23.364;2024-03-02T05:37:26;94557.56;;;8.86;100.00
5691;BME280;2870;42.680;23.364;2024-03-02T05:39:53;94556.25;;;8.87;100.00
5691;BME280;2870;42.680;23.364;2024-03-02T05:42:20;94560.00;;;8.74;100.00
5691;BME280;2870;42.680;23.364;2024-03-02T05:44:48;94570.63;;;8.76;100.00
5691;BME280;2870;42.680;23.364;2024-03-02T05:47:15;94568.19;;;8.80;100.00
5691;BME280;2870;42.680;23.364;2024-03-02T05:49:42;94567.06;;;8.83;100.00
5691;BME280;2870;42.680;23.364;2024-03-02T05:52:09;94573.03;;;8.87;100.00
5691;BME280;2870;42.680;23.364;2024-03-02T05:54:36;94569.84;;;8.83;100.00
5691;BME280;2870;42.680;23.364;2024-03-02T05:57:04;94566.50;;;8.85;100.00
5691;BME280;2870;42.680;23.364;2024-03-02T05:59:53;94571.34;;;8.84;100.00
5691;BME280;2870;42.680;23.364;2024-03-02T06:02:20;94580.28;;;8.90;100.00
5691;BME280;2870;42.680;23.364;2024-03-02T06:04:46;94573.75;;;8.95;100.00
5691;BME280;2870;42.680;23.364;2024-03-02T06:07:13;94574.13;;;8.99;100.00
5691;BME280;2870;42.680;23.364;2024-03-02T06:09:40;94573.03;;;8.72;100.00
5691;BME280;2870;42.680;23.364;2024-03-02T06:12:07;94577.88;;;8.79;100.00
5691;BME280;2870;42.680;23.364;2024-03-02T06:14:34;94572.84;;;8.85;100.00
5691;BME280;2870;42.680;23.364;2024-03-02T06:17:02;94577.88;;;8.79;100.00
5691;BME280;2870;42.680;23.364;2024-03-02T06:19:29;94574.16;;;8.76;100.00
5691;BME280;2870;42.680;23.364;2024-03-02T06:21:56;94572.09;;;8.77;100.00
5691;BME280;2870;42.680;23.364;2024-03-02T06:24:23;94575.66;;;8.85;100.00
5691;BME280;2870;42.680;23.364;2024-03-02T06:26:51;94575.06;;;8.79;100.00
5691;BME280;2870;42.680;23.364;2024-03-02T06:29:18;94581.81;;;8.61;100.00
5691;BME280;2870;42.680;23.364;2024-03-02T06:31:45;94579.00;;;8.30;100.00
5691;BME280;2870;42.680;23.364;2024-03-02T06:34:13;94576.56;;;8.27;100.00
5691;BME280;2870;42.680;23.364;2024-03-02T06:36:39;94576.38;;;8.32;100.00
5691;BME280;2870;42.680;23.364;2024-03-02T06:39:07;94586.84;;;8.39;100.00
5691;BME280;2870;42.680;23.364;2024-03-02T06:41:35;94586.84;;;8.39;100.00
5691;BME280;2870;42.680;23.364;2024-03-02T06:44:02;94583.31;;;8.39;100.00
5691;BME280;2870;42.680;23.364;2024-03-02T06:46:29;94583.88;;;8.37;100.00
5691;BME280;2870;42.680;23.364;2024-03-02T06:48:56;94583.13;;;8.37;100.00
5691;BME280;2870;42.680;23.364;2024-03-02T06:51:24;94585.56;;;8.40;100.00
5691;BME280;2870;42.680;23.364;2024-03-02T06:53:50;94590.94;;;8.38;100.00
5691;BME280;2870;42.680;23.364;2024-03-02T06:56:17;94586.69;;;8.53;100.00
5691;BME280;2870;42.680;23.364;2024-03-02T06:58:44;94589.66;;;8.70;100.00
5691;BME280;2870;42.680;23.364;2024-03-02T07:01:10;94593.94;;;8.63;100.00
5691;BME280;2870;42.680;23.364;2024-03-02T07:03:39;94596.91;;;8.58;100.00
5691;BME280;2870;42.680;23.364;2024-03-02T07:06:05;94604.38;;;8.70;100.00
5691;BME280;2870;42.680;23.364;2024-03-02T07:08:33;94600.09;;;8.69;100.00
5691;BME280;2870;42.680;23.364;2024-03-02T07:11:00;94602.31;;;8.71;100.00
5691;BME280;2870;42.680;23.364;2024-03-02T07:13:27;94607.72;;;8.61;100.00
5691;BME280;2870;42.680;23.364;2024-03-02T07:15:54;94598.41;;;8.66;100.00
5691;BME280;2870;42.680;23.364;2024-03-02T07:18:49;94610.69;;;8.86;100.00
5691;BME280;2870;42.680;23.364;2024-03-02T07:21:17;94606.59;;;8.72;100.00
5691;BME280;2870;42.680;23.364;2024-03-02T07:23:45;94606.97;;;8.91;100.00
5691;BME280;2870;42.680;23.364;2024-03-02T07:26:12;94600.97;;;8.95;100.00
5691;BME280;2870;42.680;23.364;2024-03-02T07:28:40;94610.88;;;8.88;100.00
5691;BME280;2870;42.680;23.364;2024-03-02T07:31:07;94604.72;;;8.97;100.00
5691;BME280;2870;42.680;23.364;2024-03-02T07:33:35;94599.13;;;8.90;100.00
5691;BME280;2870;42.680;23.364;2024-03-02T07:36:02;94610.84;;;9.03;100.00
5691;BME280;2870;42.680;23.364;2024-03-02T07:38:30;94615.53;;;8.93;100.00
5691;BME280;2870;42.680;23.364;2024-03-02T07:40:58;94613.13;;;8.74;100.00
5691;BME280;2870;42.680;23.364;2024-03-02T07:43:25;94618.88;;;8.84;100.00
5691;BME280;2870;42.680;23.364;2024-03-02T07:45:52;94620.41;;;8.85;100.00
5691;BME280;2870;42.680;23.364;2024-03-02T07:48:19;94627.47;;;8.56;100.00
5691;BME280;2870;42.680;23.364;2024-03-02T07:50:46;94618.53;;;8.80;100.00
5691;BME280;2870;42.680;23.364;2024-03-02T07:53:12;94618.16;;;8.91;100.00
5691;BME280;2870;42.680;23.364;2024-03-02T07:55:39;94621.13;;;8.93;100.00
5691;BME280;2870;42.680;23.364;2024-03-02T07:58:08;94623.75;;;8.91;100.00
5691;BME280;2870;42.680;23.364;2024-03-02T08:00:38;94614.41;;;8.96;100.00
5691;BME280;2870;42.680;23.364;2024-03-02T08:03:05;94620.03;;;8.81;100.00
5691;BME280;2870;42.680;23.364;2024-03-02T08:05:32;94628.56;;;8.98;100.00
5691;BME280;2870;42.680;23.364;2024-03-02T08:07:58;94629.13;;;9.05;100.00
5691;BME280;2870;42.680;23.364;2024-03-02T08:10:25;94631.72;;;9.10;100.00
5691;BME280;2870;42.680;23.364;2024-03-02T08:12:52;94627.81;;;9.13;100.00
5691;BME280;2870;42.680;23.364;2024-03-02T08:15:20;94640.13;;;9.10;100.00
5691;BME280;2870;42.680;23.364;2024-03-02T08:17:46;94627.81;;;9.13;100.00
5691;BME280;2870;42.680;23.364;2024-03-02T08:20:15;94638.25;;;9.05;100.00
5691;BME280;2870;42.680;23.364;2024-03-02T08:22:41;94639.00;;;9.13;100.00
5691;BME280;2870;42.680;23.364;2024-03-02T08:25:08;94634.69;;;9.27;100.00
5691;BME280;2870;42.680;23.364;2024-03-02T08:27:36;94640.50;;;9.14;100.00
5691;BME280;2870;42.680;23.364;2024-03-02T08:30:03;94637.84;;;9.24;100.00
5691;BME280;2870;42.680;23.364;2024-03-02T08:32:33;94640.28;;;9.27;100.00
5691;BME280;2870;42.680;23.364;2024-03-02T08:35:00;94633.03;;;9.17;100.00
5691;BME280;2870;42.680;23.364;2024-03-02T08:37:26;94633.19;;;9.19;100.00
5691;BME280;2870;42.680;23.364;2024-03-02T08:39:53;94628.72;;;9.23;100.00
5691;BME280;2870;42.680;23.364;2024-03-02T08:42:20;94638.97;;;9.36;100.00
5691;BME280;2870;42.680;23.364;2024-03-02T08:44:48;94634.31;;;9.31;100.00
5691;BME280;2870;42.680;23.364;2024-03-02T08:47:15;94635.78;;;9.32;100.00
5691;BME280;2870;42.680;23.364;2024-03-02T08:49:43;94629.44;;;9.32;100.00
5691;BME280;2870;42.680;23.364;2024-03-02T08:52:09;94621.78;;;9.40;100.00
5691;BME280;2870;42.680;23.364;2024-03-02T08:54:36;94627.78;;;9.84;100.00
5691;BME280;2870;42.680;23.364;2024-03-02T08:57:03;94630.59;;;9.76;100.00
5691;BME280;2870;42.680;23.364;2024-03-02T08:59:30;94623.38;;;9.66;100.00
5691;BME280;2870;42.680;23.364;2024-03-02T09:01:57;94631.16;;;9.75;100.00
5691;BME280;2870;42.680;23.364;2024-03-02T09:04:24;94637.19;;;10.04;100.00
5691;BME280;2870;42.680;23.364;2024-03-02T09:06:52;94632.94;;;9.95;100.00
5691;BME280;2870;42.680;23.364;2024-03-02T09:09:19;94634.16;;;10.09;100.00
5691;BME280;2870;42.680;23.364;2024-03-02T09:11:46;94636.41;;;10.11;100.00
5691;BME280;2870;42.680;23.364;2024-03-02T09:14:13;94639.06;;;10.01;100.00
5691;BME280;2870;42.680;23.364;2024-03-02T09:16:41;94635.59;;;10.26;100.00
5691;BME280;2870;42.680;23.364;2024-03-02T09:19:07;94645.56;;;10.12;100.00
5691;BME280;2870;42.680;23.364;2024-03-02T09:21:34;94642.25;;;10.05;100.00
5691;BME280;2870;42.680;23.364;2024-03-02T09:24:03;94647.44;;;10.09;100.00
5691;BME280;2870;42.680;23.364;2024-03-02T09:26:32;94649.44;;;10.24;100.00
5691;BME280;2870;42.680;23.364;2024-03-02T09:28:58;94653.19;;;10.19;100.00
5691;BME280;2870;42.680;23.364;2024-03-02T09:31:25;94650.28;;;10.42;100.00
5691;BME280;2870;42.680;23.364;2024-03-02T09:33:52;94649.94;;;10.63;100.00
5691;BME280;2870;42.680;23.364;2024-03-02T09:36:19;94656.69;;;10.59;100.00
5691;BME280;2870;42.680;23.364;2024-03-02T09:38:45;94659.69;;;10.61;100.00
5691;BME280;2870;42.680;23.364;2024-03-02T09:41:14;94654.69;;;10.52;100.00
5691;BME280;2870;42.680;23.364;2024-03-02T09:43:40;94654.25;;;10.31;100.00
5691;BME280;2870;42.680;23.364;2024-03-02T09:46:08;94651.88;;;10.52;100.00
5691;BME280;2870;42.680;23.364;2024-03-02T09:48:35;94646.72;;;10.66;100.00
5691;BME280;2870;42.680;23.364;2024-03-02T09:51:04;94656.31;;;10.63;100.00
5691;BME280;2870;42.680;23.364;2024-03-02T09:53:32;94659.03;;;10.71;100.00
5691;BME280;2870;42.680;23.364;2024-03-02T09:56:00;94664.66;;;10.71;100.00
5691;BME280;2870;42.680;23.364;2024-03-02T09:58:28;94648.97;;;10.68;100.00
5691;BME280;2870;42.680;23.364;2024-03-02T10:00:55;94656.19;;;10.78;100.00
5691;BME280;2870;42.680;23.364;2024-03-02T10:03:23;94665.69;;;10.83;100.00
5691;BME280;2870;42.680;23.364;2024-03-02T10:05:49;94657.03;;;10.88;100.00
5691;BME280;2870;42.680;23.364;2024-03-02T10:08:17;94657.91;;;10.74;100.00
5691;BME280;2870;42.680;23.364;2024-03-02T10:10:44;94655.22;;;10.83;100.00
5691;BME280;2870;42.680;23.364;2024-03-02T10:13:11;94658.44;;;10.80;100.00
5691;BME280;2870;42.680;23.364;2024-03-02T10:15:40;94659.53;;;10.84;100.00
5691;BME280;2870;42.680;23.364;2024-03-02T10:18:08;94658.34;;;10.87;100.00
5691;BME280;2870;42.680;23.364;2024-03-02T10:20:36;94652.47;;;10.76;100.00
5691;BME280;2870;42.680;23.364;2024-03-02T10:23:10;94655.09;;;10.74;100.00
5691;BME280;2870;42.680;23.364;2024-03-02T10:25:38;94664.31;;;10.67;100.00
5691;BME280;2870;42.680;23.364;2024-03-02T10:28:05;94646.38;;;10.87;100.00
5691;BME280;2870;42.680;23.364;2024-03-02T10:30:32;94617.09;;;10.55;100.00
5691;BME280;2870;42.680;23.364;2024-03-02T10:33:01;94649.84;;;10.78;100.00
5691;BME280;2870;42.680;23.364;2024-03-02T10:35:28;94651.19;;;10.94;100.00
5691;BME280;2870;42.680;23.364;2024-03-02T10:37:58;94653.47;;;10.88;100.00
5691;BME280;2870;42.680;23.364;2024-03-02T10:40:26;94651.31;;;10.79;100.00
5691;BME280;2870;42.680;23.364;2024-03-02T10:42:53;94649.84;;;10.78;100.00
5691;BME280;2870;42.680;23.364;2024-03-02T10:45:21;94643.69;;;10.97;100.00
5691;BME280;2870;42.680;23.364;2024-03-02T10:47:49;94646.09;;;10.75;100.00
5691;BME280;2870;42.680;23.364;2024-03-02T10:50:17;94644.34;;;10.63;100.00
5691;BME280;2870;42.680;23.364;2024-03-02T10:52:45;94641.81;;;10.49;100.00
5691;BME280;2870;42.680;23.364;2024-03-02T10:55:12;94641.31;;;10.68;100.00
5691;BME280;2870;42.680;23.364;2024-03-02T10:57:42;94642.72;;;10.77;100.00
5691;BME280;2870;42.680;23.364;2024-03-02T11:00:13;94609.97;;;10.54;100.00
5691;BME280;2870;42.680;23.364;2024-03-02T11:02:50;94638.22;;;10.81;100.00
5691;BME280;2870;42.680;23.364;2024-03-02T11:05:26;94632.88;;;10.93;100.00
5691;BME280;2870;42.680;23.364;2024-03-02T11:07:57;94631.56;;;10.69;100.00
5691;BME280;2870;42.680;23.364;2024-03-02T11:10:24;94627.25;;;10.43;100.00
5691;BME280;2870;42.680;23.364;2024-03-02T11:12:56;94637.34;;;10.46;100.00
5691;BME280;2870;42.680;23.364;2024-03-02T11:15:27;94633.66;;;10.36;100.00
5691;BME280;2870;42.680;23.364;2024-03-02T11:17:54;94632.53;;;10.64;100.00
5691;BME280;2870;42.680;23.364;2024-03-02T11:20:23;94630.09;;;10.68;100.00
5691;BME280;2870;42.680;23.364;2024-03-02T11:22:51;94629.47;;;10.95;100.00
5691;BME280;2870;42.680;23.364;2024-03-02T11:25:24;94564.28;;;10.44;100.00
5691;BME280;2870;42.680;23.364;2024-03-02T11:28:05;94628.22;;;10.88;100.00
5691;BME280;2870;42.680;23.364;2024-03-02T11:30:52;94626.88;;;10.97;100.00
5691;BME280;2870;42.680;23.364;2024-03-02T11:33:26;94623.94;;;10.87;100.00
5691;BME280;2870;42.680;23.364;2024-03-02T11:35:57;94620.28;;;10.77;100.00
5691;BME280;2870;42.680;23.364;2024-03-02T11:38:33;94622.41;;;10.69;100.00
5691;BME280;2870;42.680;23.364;2024-03-02T11:41:01;94625.38;;;10.46;100.00
5691;BME280;2870;42.680;23.364;2024-03-02T11:43:29;94621.78;;;10.78;100.00
5691;BME280;2870;42.680;23.364;2024-03-02T11:46:00;94632.16;;;10.68;100.00
5691;BME280;2870;42.680;23.364;2024-03-02T11:48:29;94632.09;;;10.50;100.00
5691;BME280;2870;42.680;23.364;2024-03-02T11:51:00;94624.78;;;10.15;100.00
5691;BME280;2870;42.680;23.364;2024-03-02T11:53:27;94634.25;;;10.34;100.00
5691;BME280;2870;42.680;23.364;2024-03-02T11:55:55;94629.28;;;10.50;100.00
5691;BME280;2870;42.680;23.364;2024-03-02T11:58:22;94626.19;;;10.64;100.00
5691;BME280;2870;42.680;23.364;2024-03-02T12:00:52;94623.44;;;10.56;100.00
5691;BME280;2870;42.680;23.364;2024-03-02T12:03:20;94625.84;;;10.59;100.00
5691;BME280;2870;42.680;23.364;2024-03-02T12:05:49;94618.22;;;10.77;100.00
5691;BME280;2870;42.680;23.364;2024-03-02T12:08:18;94593.75;;;10.53;100.00
5691;BME280;2870;42.680;23.364;2024-03-02T12:10:56;94618.69;;;10.91;100.00
5691;BME280;2870;42.680;23.364;2024-03-02T12:13:23;94612.00;;;11.04;100.00
5691;BME280;2870;42.680;23.364;2024-03-02T12:15:53;94623.00;;;11.09;100.00
5691;BME280;2870;42.680;23.364;2024-03-02T12:18:20;94627.94;;;11.01;100.00
5691;BME280;2870;42.680;23.364;2024-03-02T12:20:48;94624.88;;;10.90;100.00
5691;BME280;2870;42.680;23.364;2024-03-02T12:23:18;94625.81;;;11.09;100.00
5691;BME280;2870;42.680;23.364;2024-03-02T12:25:46;94628.22;;;10.88;100.00
5691;BME280;2870;42.680;23.364;2024-03-02T12:28:13;94624.63;;;10.95;100.00
5691;BME280;2870;42.680;23.364;2024-03-02T12:30:39;94624.66;;;11.12;100.00
5691;BME280;2870;42.680;23.364;2024-03-02T12:33:06;94621.94;;;11.22;100.00
5691;BME280;2870;42.680;23.364;2024-03-02T12:35:33;94620.69;;;11.15;100.00
5691;BME280;2870;42.680;23.364;2024-03-02T12:38:00;94628.94;;;11.13;100.00
5691;BME280;2870;42.680;23.364;2024-03-02T12:40:28;94625.94;;;10.94;100.00
5691;BME280;2870;42.680;23.364;2024-03-02T12:42:54;94620.00;;;10.90;100.00
5691;BME280;2870;42.680;23.364;2024-03-02T12:45:21;94613.72;;;10.99;100.00
5691;BME280;2870;42.680;23.364;2024-03-02T12:47:50;94619.28;;;11.07;100.00
5691;BME280;2870;42.680;23.364;2024-03-02T12:50:18;94604.66;;;11.08;100.00
5691;BME280;2870;42.680;23.364;2024-03-02T12:52:51;94620.94;;;11.45;100.00
5691;BME280;2870;42.680;23.364;2024-03-02T12:55:20;94590.91;;;11.37;100.00
5691;BME280;2870;42.680;23.364;2024-03-02T12:57:49;94622.75;;;11.67;99.60
5691;BME280;2870;42.680;23.364;2024-03-02T13:00:18;94624.00;;;11.39;100.00
5691;BME280;2870;42.680;23.364;2024-03-02T13:02:46;94627.50;;;11.47;100.00
5691;BME280;2870;42.680;23.364;2024-03-02T13:05:12;94620.53;;;11.48;100.00
5691;BME280;2870;42.680;23.364;2024-03-02T13:07:40;94629.31;;;11.52;99.75
5691;BME280;2870;42.680;23.364;2024-03-02T13:10:08;94628.88;;;11.56;100.00
5691;BME280;2870;42.680;23.364;2024-03-02T13:12:36;94616.75;;;11.53;100.00
5691;BME280;2870;42.680;23.364;2024-03-02T13:15:05;94625.44;;;11.48;100.00